Terminal Aerodrome Forecast
Issued by NWS

Home | Current Version | Previous Version | Graphics & Text | Print | Product List | Glossary On
Versions: 1 2 3 4 5 6 7 8 9 10 11 12 13 14 15 16 17 18 19 20 21
000
FTUS43 KBIS 211722
TAFJMS
TAF
KJMS 211722Z 2118/2218 02008KT P6SM SCT025
     FM212200 05010KT P6SM FEW100
     FM220100 08009KT P6SM FEW200
     FM220500 11010KT P6SM SCT200
     FM221000 13013KT P6SM BKN080
     FM221500 15017G23KT P6SM BKN035 OVC060=

USA.gov is the U.S. government's official web portal to all federal, state and local government web resources and services.